Adams Basin, New York
Current Conditions -  °F | °C
As of 8:54 AM on Friday 28 Nov 2014 (Local Time) from KROC Reporting Station
Light Snow Light Snow  
Wind Chill: 12°   Ceiling: 5000
Heat Index: 24°   Visibility: 8mi
Dew Point: 17°   Wind: 13mph
Humidity: 75%   Direction: 260°W
Pressure: 30.24"   Gusts: NA
Location:  43.2°N, 77.85°W
Report Text: KROC 281354Z 26011KT 8SM -SN BKN050 BKN100 M04/M08 A3024 RMK AO2 SLP250 P0000 T10441083
Loading
Personal Weather Stations






























Interactive Weather Map New forecast layout! Learn more

10-Day Weather Forecast

Advertisements
Track Severe Weather on mobile